Time;durP1;ratioP1;P1;durP2;ratioP2;P2;SDS_P1;SDS_P2;PMS_P1;PMS_P2;Temp;Humidity;BMP_temperature;BMP_pressure;BME280_temperature;BME280_humidity;BME280_pressure;Samples;Min_cycle;Max_cycle;Signal;HPM_P1;HPM_P2
2022/10/14 00:01:21;;;;;;;11.60;10.57;;;19.70;67.70;;;;;;5044437;28;20486;-46
2022/10/14 00:03:47;;;;;;;13.13;11.80;;;19.70;67.80;;;;;;5039144;28;20538;-47
2022/10/14 00:06:17;;;;;;;12.97;11.70;;;19.70;67.90;;;;;;5049786;28;20531;-48
2022/10/14 00:08:43;;;;;;;12.50;11.27;;;19.80;67.50;;;;;;5048272;28;20201;-50
2022/10/14 00:11:13;;;;;;;12.27;9.43;;;19.90;67.30;;;;;;5050215;28;20450;-47
2022/10/14 00:13:38;;;;;;;12.93;10.80;;;19.90;67.40;;;;;;5050832;28;20205;-50
2022/10/14 00:16:05;;;;;;;13.87;10.17;;;20.00;67.30;;;;;;5045523;28;20607;-46
2022/10/14 00:18:31;;;;;;;14.03;11.10;;;20.00;66.80;;;;;;5045394;28;20205;-47
2022/10/14 00:20:58;;;;;;;12.70;10.90;;;20.10;66.70;;;;;;5043359;28;20474;-48
2022/10/14 00:23:25;;;;;;;12.50;10.20;;;20.10;66.50;;;;;;5041469;28;20522;-47
2022/10/14 00:25:51;;;;;;;11.80;10.60;;;20.10;66.00;;;;;;5041301;28;20847;-47
2022/10/14 00:28:17;;;;;;;11.17;10.10;;;20.10;66.10;;;;;;5046088;28;20440;-50
2022/10/14 00:30:55;;;;;;;13.33;11.87;;;20.10;66.20;;;;;;5039775;28;20496;-50
2022/10/14 00:33:22;;;;;;;13.73;10.40;;;20.00;66.00;;;;;;5037735;28;20444;-49
2022/10/14 00:36:00;;;;;;;12.33;11.10;;;19.90;66.20;;;;;;5040964;28;20453;-47
2022/10/14 00:38:26;;;;;;;12.53;11.27;;;19.90;66.40;;;;;;5039998;28;20455;-47
2022/10/14 00:40:53;;;;;;;12.50;11.30;;;19.90;66.70;;;;;;5039936;28;20474;-49
2022/10/14 00:43:19;;;;;;;15.00;12.27;;;19.90;66.50;;;;;;5037984;28;20817;-48
2022/10/14 00:45:45;;;;;;;14.20;11.53;;;19.80;66.60;;;;;;5041665;28;20439;-50
2022/10/14 00:48:11;;;;;;;13.03;10.80;;;19.70;67.10;;;;;;5040689;28;20968;-46
2022/10/14 00:50:40;;;;;;;11.83;10.27;;;19.70;67.30;;;;;;5036607;28;20283;-47
2022/10/14 00:53:07;;;;;;;14.70;12.17;;;19.60;67.50;;;;;;5043669;28;20530;-46
2022/10/14 00:55:33;;;;;;;15.37;11.60;;;19.70;67.70;;;;;;5047036;28;20443;-46
2022/10/14 00:57:59;;;;;;;13.33;11.93;;;19.70;67.40;;;;;;5045352;28;20443;-47
2022/10/14 01:00:24;;;;;;;12.50;11.20;;;19.70;67.30;;;;;;5044198;28;20641;-47
2022/10/14 01:02:50;;;;;;;11.37;10.20;;;19.50;67.80;;;;;;5048130;28;20193;-47
2022/10/14 01:05:18;;;;;;;14.30;11.20;;;19.50;68.10;;;;;;5049233;28;20240;-46
2022/10/14 01:07:57;;;;;;;14.97;12.10;;;19.60;68.00;;;;;;5041349;28;20188;-47
2022/10/14 01:10:38;;;;;;;12.57;11.30;;;19.50;68.20;;;;;;5041488;28;20486;-47
2022/10/14 01:13:28;;;;;;;13.63;12.23;;;19.50;68.00;;;;;;5043712;28;22569;-48
2022/10/14 01:16:08;;;;;;;11.77;10.53;;;19.30;68.20;;;;;;5048192;28;20516;-47
2022/10/14 01:19:02;;;;;;;12.60;10.27;;;19.30;68.90;;;;;;5043283;28;21002;-49
2022/10/14 01:21:36;;;;;;;11.57;10.37;;;19.40;68.90;;;;;;5045190;28;20537;-46
2022/10/14 01:24:26;;;;;;;14.23;12.73;;;19.50;68.70;;;;;;5045341;28;20450;-46
2022/10/14 01:27:06;;;;;;;11.50;10.30;;;19.60;68.30;;;;;;5044572;28;20473;-48
2022/10/14 01:29:56;;;;;;;11.93;10.73;;;19.60;67.60;;;;;;5041718;28;20588;-47
2022/10/14 01:32:40;;;;;;;12.07;10.80;;;19.60;67.40;;;;;;5039130;28;20536;-47
2022/10/14 01:35:24;;;;;;;12.90;11.47;;;19.60;67.50;;;;;;5044692;28;20566;-47
2022/10/14 01:37:57;;;;;;;12.00;10.80;;;19.60;67.40;;;;;;5044812;28;20447;-47
2022/10/14 01:40:48;;;;;;;12.43;11.13;;;19.50;67.50;;;;;;5043329;28;20927;-51
2022/10/14 01:43:17;;;;;;;11.47;10.27;;;19.60;67.80;;;;;;5042124;28;20447;-46
2022/10/14 01:45:44;;;;;;;12.40;11.13;;;19.60;67.90;;;;;;5044524;28;20949;-49
2022/10/14 01:48:11;;;;;;;11.83;10.53;;;19.60;67.70;;;;;;5042003;28;21071;-48
2022/10/14 01:50:38;;;;;;;10.43;9.23;;;19.70;67.80;;;;;;5053502;28;20497;-46
2022/10/14 01:53:10;;;;;;;11.20;9.90;;;19.70;67.70;;;;;;5047294;28;20435;-46
2022/10/14 01:55:42;;;;;;;11.83;10.53;;;19.70;67.60;;;;;;5046974;28;20439;-46
2022/10/14 01:58:11;;;;;;;14.00;10.27;;;19.80;67.30;;;;;;5041373;28;20447;-48
2022/10/14 02:00:37;;;;;;;12.27;10.97;;;19.80;67.00;;;;;;5047308;28;20451;-46
2022/10/14 02:03:03;;;;;;;11.63;10.43;;;19.80;66.80;;;;;;5050531;28;20506;-47
2022/10/14 02:06:04;;;;;;;13.23;11.93;;;19.80;66.60;;;;;;5050945;28;20196;-46
2022/10/14 02:08:54;;;;;;;16.90;12.13;;;19.80;66.50;;;;;;5047360;28;20193;-46
2022/10/14 02:11:21;;;;;;;13.20;11.10;;;19.70;66.20;;;;;;5049340;28;21008;-47
2022/10/14 02:14:13;;;;;;;13.60;12.20;;;19.60;67.20;;;;;;5051684;28;20965;-47
2022/10/14 02:16:52;;;;;;;12.73;11.43;;;19.40;67.90;;;;;;5045435;28;20955;-48
2022/10/14 02:19:27;;;;;;;17.00;12.33;;;19.30;68.60;;;;;;5049804;28;20566;-48
2022/10/14 02:22:15;;;;;;;14.80;13.30;;;19.30;68.60;;;;;;5047764;28;20512;-47
2022/10/14 02:24:45;;;;;;;14.17;12.70;;;19.20;68.70;;;;;;5047491;28;20442;-46
2022/10/14 02:27:16;;;;;;;14.87;12.53;;;19.20;68.90;;;;;;5046422;28;20435;-47
2022/10/14 02:29:44;;;;;;;14.20;12.73;;;19.20;69.00;;;;;;5049381;28;20635;-46
2022/10/14 02:32:13;;;;;;;13.80;12.30;;;19.20;69.20;;;;;;5049208;28;20870;-48
2022/10/14 02:34:40;;;;;;;15.10;12.60;;;19.00;69.20;;;;;;5045593;28;20444;-48
2022/10/14 02:37:06;;;;;;;14.53;12.40;;;18.90;70.40;;;;;;5047765;28;20442;-46
2022/10/14 02:39:37;;;;;;;15.10;12.17;;;18.90;70.40;;;;;;5047932;28;20446;-47
2022/10/14 02:42:04;;;;;;;12.90;11.70;;;18.90;70.60;;;;;;5045711;28;20192;-47
2022/10/14 02:44:29;;;;;;;13.30;10.80;;;18.90;70.30;;;;;;5049677;28;20443;-46
2022/10/14 02:46:55;;;;;;;12.37;11.00;;;18.90;70.40;;;;;;5040995;28;20450;-47
2022/10/14 02:49:21;;;;;;;11.73;10.63;;;18.90;70.50;;;;;;5046670;28;20262;-48
2022/10/14 02:51:47;;;;;;;12.53;10.80;;;18.80;70.70;;;;;;5045204;28;20270;-46
2022/10/14 02:54:13;;;;;;;15.87;11.33;;;18.70;71.00;;;;;;5049588;28;20266;-48
2022/10/14 02:56:39;;;;;;;13.20;10.40;;;18.70;71.40;;;;;;5047624;28;20533;-47
2022/10/14 02:59:04;;;;;;;14.30;11.60;;;18.80;71.50;;;;;;5051220;28;20541;-46
2022/10/14 03:01:30;;;;;;;13.83;10.17;;;18.80;71.30;;;;;;5052346;28;20196;-48
2022/10/14 03:03:55;;;;;;;12.30;10.00;;;18.70;71.00;;;;;;5050123;28;20188;-48
2022/10/14 03:06:21;;;;;;;11.93;10.83;;;18.70;71.40;;;;;;5047886;28;20228;-48
2022/10/14 03:08:47;;;;;;;11.33;9.60;;;18.80;71.50;;;;;;5052256;28;20196;-47
2022/10/14 03:11:12;;;;;;;10.93;9.83;;;18.80;71.30;;;;;;5042056;28;20231;-46
2022/10/14 03:13:38;;;;;;;10.27;9.27;;;18.90;71.10;;;;;;5049780;28;20628;-49
2022/10/14 03:16:04;;;;;;;22.10;9.70;;;18.90;70.90;;;;;;5048338;28;20196;-47
2022/10/14 03:18:30;;;;;;;10.37;8.30;;;19.00;70.80;;;;;;5046883;28;20279;-47
2022/10/14 03:20:55;;;;;;;10.17;9.17;;;18.90;70.60;;;;;;5042875;28;20289;-46
2022/10/14 03:23:21;;;;;;;12.80;9.80;;;18.90;70.90;;;;;;5048778;28;20443;-48
2022/10/14 03:25:47;;;;;;;13.07;8.30;;;18.90;71.50;;;;;;5046459;28;20275;-47
2022/10/14 03:28:13;;;;;;;10.17;9.17;;;18.90;70.70;;;;;;5045219;28;20450;-47
2022/10/14 03:30:39;;;;;;;9.83;8.87;;;18.90;70.60;;;;;;5051146;28;20279;-47
2022/10/14 03:33:05;;;;;;;9.57;8.57;;;18.90;70.60;;;;;;5045493;28;20189;-47
2022/10/14 03:35:30;;;;;;;9.73;8.40;;;18.90;70.60;;;;;;5044472;28;20438;-48
2022/10/14 03:37:58;;;;;;;9.77;8.90;;;18.90;70.50;;;;;;5047040;28;20200;-48
2022/10/14 03:40:23;;;;;;;10.70;9.10;;;18.90;70.50;;;;;;5050113;28;20204;-46
2022/10/14 03:42:49;;;;;;;10.53;8.50;;;18.90;70.40;;;;;;5043269;28;20443;-47
2022/10/14 03:45:15;;;;;;;9.47;8.50;;;18.80;70.30;;;;;;5046952;28;20238;-48
2022/10/14 03:47:46;;;;;;;9.00;8.20;;;18.80;70.60;;;;;;5041057;28;20296;-49
2022/10/14 03:50:12;;;;;;;8.50;7.80;;;18.80;71.10;;;;;;5039546;28;20224;-49
2022/10/14 03:52:39;;;;;;;10.40;8.43;;;18.80;71.00;;;;;;5052182;28;20439;-48
2022/10/14 03:55:05;;;;;;;11.50;9.77;;;18.60;71.40;;;;;;5046617;28;20339;-49
2022/10/14 03:57:30;;;;;;;12.53;8.50;;;18.40;72.30;;;;;;5044217;28;20910;-47
2022/10/14 03:59:56;;;;;;;12.77;8.97;;;18.20;73.60;;;;;;5049249;28;20217;-47
2022/10/14 04:02:21;;;;;;;10.50;9.53;;;18.10;74.40;;;;;;5045794;28;20539;-47
2022/10/14 04:04:47;;;;;;;10.63;9.53;;;18.20;74.30;;;;;;5046823;28;20318;-46
2022/10/14 04:07:12;;;;;;;15.20;9.70;;;18.20;74.00;;;;;;5042958;28;20198;-46
2022/10/14 04:09:38;;;;;;;11.07;9.97;;;17.90;75.30;;;;;;5047019;28;20739;-47
2022/10/14 04:12:04;;;;;;;12.03;10.20;;;17.70;76.60;;;;;;5048802;28;20461;-48
2022/10/14 04:14:30;;;;;;;9.13;8.23;;;17.70;77.00;;;;;;5047611;28;20231;-48
2022/10/14 04:16:55;;;;;;;13.27;9.90;;;17.60;77.40;;;;;;5046431;28;20938;-46
2022/10/14 04:19:21;;;;;;;12.20;9.40;;;17.70;77.00;;;;;;5046654;28;20236;-47
2022/10/14 04:21:46;;;;;;;8.57;7.77;;;17.90;76.20;;;;;;5046626;28;20707;-52
2022/10/14 04:24:12;;;;;;;8.97;7.47;;;17.80;75.50;;;;;;5046946;28;20207;-47
2022/10/14 04:26:37;;;;;;;9.40;8.33;;;17.70;76.10;;;;;;5047525;28;20651;-49
2022/10/14 04:29:03;;;;;;;7.97;7.10;;;17.70;76.10;;;;;;5049153;28;20227;-47
2022/10/14 04:31:29;;;;;;;8.57;7.67;;;17.80;75.70;;;;;;5040334;28;20213;-46
2022/10/14 04:33:55;;;;;;;8.50;7.63;;;17.80;76.00;;;;;;5043376;28;20220;-49
2022/10/14 04:36:20;;;;;;;8.37;7.30;;;17.80;76.10;;;;;;5044170;28;20537;-46
2022/10/14 04:38:46;;;;;;;8.63;7.27;;;17.80;75.80;;;;;;5047755;28;20200;-47
2022/10/14 04:41:11;;;;;;;8.23;7.00;;;17.70;76.00;;;;;;5045431;28;20224;-48
2022/10/14 04:43:37;;;;;;;10.53;6.80;;;17.60;76.40;;;;;;5041596;28;20196;-46
2022/10/14 04:46:03;;;;;;;10.70;7.57;;;17.50;76.40;;;;;;5043082;28;20196;-46
2022/10/14 04:48:28;;;;;;;10.20;8.10;;;17.50;76.50;;;;;;5045457;28;20696;-46
2022/10/14 04:50:54;;;;;;;9.20;7.80;;;17.60;76.40;;;;;;5042576;28;20582;-47
2022/10/14 04:53:20;;;;;;;12.50;8.43;;;17.60;76.20;;;;;;5044716;28;20197;-48
2022/10/14 04:55:48;;;;;;;10.40;8.60;;;17.60;76.40;;;;;;5047923;28;20576;-47
2022/10/14 04:58:14;;;;;;;12.93;9.50;;;17.50;76.70;;;;;;5039263;28;20236;-50
2022/10/14 05:00:41;;;;;;;11.73;9.37;;;17.40;77.80;;;;;;5038054;28;20443;-47
2022/10/14 05:03:06;;;;;;;12.80;9.83;;;17.30;78.10;;;;;;5038875;28;21001;-48
2022/10/14 05:05:32;;;;;;;13.60;9.57;;;17.30;78.20;;;;;;5046940;28;20534;-46
2022/10/14 05:07:58;;;;;;;11.73;9.53;;;17.40;78.00;;;;;;5038152;28;20675;-49
2022/10/14 05:10:23;;;;;;;11.80;9.70;;;17.30;78.10;;;;;;5036411;28;20483;-48
2022/10/14 05:12:49;;;;;;;11.40;10.07;;;17.30;78.60;;;;;;5045253;28;20268;-47
2022/10/14 05:15:15;;;;;;;10.10;8.83;;;17.30;78.50;;;;;;5038509;28;20258;-51
2022/10/14 05:17:43;;;;;;;9.93;8.90;;;17.30;78.80;;;;;;5043960;28;20930;-47
2022/10/14 05:20:10;;;;;;;13.30;8.53;;;17.30;78.90;;;;;;5041518;28;20478;-47
2022/10/14 05:22:39;;;;;;;13.10;9.47;;;17.50;78.30;;;;;;5042177;28;20825;-46
2022/10/14 05:25:05;;;;;;;14.77;9.27;;;17.50;78.80;;;;;;5039597;28;20446;-49
2022/10/14 05:27:30;;;;;;;9.60;7.93;;;17.50;78.80;;;;;;5037309;28;20823;-49
2022/10/14 05:29:56;;;;;;;11.67;8.77;;;17.50;78.70;;;;;;5038415;28;20478;-47
2022/10/14 05:32:22;;;;;;;12.10;8.33;;;17.60;78.20;;;;;;5040211;28;20188;-50
2022/10/14 05:34:47;;;;;;;13.47;8.20;;;17.70;76.90;;;;;;5038924;28;20203;-46
2022/10/14 05:37:13;;;;;;;10.20;9.20;;;17.70;76.90;;;;;;5039777;28;20410;-51
2022/10/14 05:39:38;;;;;;;11.90;9.37;;;17.70;76.10;;;;;;5044061;28;20750;-50
2022/10/14 05:42:04;;;;;;;12.00;8.60;;;17.60;76.70;;;;;;5043210;28;20270;-49
2022/10/14 05:44:30;;;;;;;10.90;8.20;;;17.70;76.50;;;;;;5045487;28;20196;-47
2022/10/14 05:46:55;;;;;;;9.40;8.17;;;17.70;77.10;;;;;;5044715;28;20199;-47
2022/10/14 05:49:21;;;;;;;9.27;8.30;;;17.80;76.10;;;;;;5045205;28;20326;-47
2022/10/14 05:51:46;;;;;;;11.83;8.90;;;17.80;75.80;;;;;;5050046;28;20196;-47
2022/10/14 05:54:12;;;;;;;9.80;8.27;;;18.00;75.50;;;;;;5048825;28;20247;-48
2022/10/14 05:56:38;;;;;;;11.33;8.60;;;18.00;75.10;;;;;;5050264;28;20230;-46
2022/10/14 05:59:04;;;;;;;13.13;9.27;;;17.90;75.30;;;;;;5047051;28;20192;-49
2022/10/14 06:01:33;;;;;;;10.10;8.10;;;17.90;75.30;;;;;;5049916;28;20207;-46
2022/10/14 06:03:59;;;;;;;10.20;8.87;;;18.00;74.90;;;;;;5049870;28;20204;-47
2022/10/14 06:06:24;;;;;;;9.40;8.40;;;17.90;75.10;;;;;;5044306;28;20461;-46
2022/10/14 06:08:50;;;;;;;11.83;8.10;;;17.90;75.50;;;;;;5048994;28;20622;-47
2022/10/14 06:11:15;;;;;;;8.93;8.03;;;17.90;75.30;;;;;;5047348;28;20279;-46
2022/10/14 06:13:41;;;;;;;9.40;7.90;;;18.00;75.10;;;;;;5048934;28;20250;-46
2022/10/14 06:16:08;;;;;;;14.07;8.10;;;18.00;74.90;;;;;;5046024;28;20196;-48
2022/10/14 06:18:34;;;;;;;9.47;8.57;;;18.00;74.30;;;;;;5054740;28;20198;-47
2022/10/14 06:21:00;;;;;;;9.03;8.07;;;18.00;74.70;;;;;;5046668;28;20477;-46
2022/10/14 06:23:26;;;;;;;9.50;8.60;;;18.00;75.50;;;;;;5047826;28;20525;-47
2022/10/14 06:25:52;;;;;;;8.67;7.90;;;18.20;74.00;;;;;;5046996;28;20272;-51
2022/10/14 06:28:18;;;;;;;10.13;8.20;;;18.30;73.90;;;;;;5047737;28;20493;-49
2022/10/14 06:30:54;;;;;;;8.67;7.80;;;18.30;73.40;;;;;;5048742;28;20478;-47
2022/10/14 06:33:20;;;;;;;10.23;8.27;;;18.40;73.50;;;;;;5054492;28;20500;-49
2022/10/14 06:35:46;;;;;;;14.60;8.33;;;18.40;73.30;;;;;;5053944;28;20442;-47
2022/10/14 06:38:13;;;;;;;9.50;8.20;;;18.40;72.90;;;;;;5055136;28;20875;-49
2022/10/14 06:40:38;;;;;;;12.17;8.97;;;18.50;72.40;;;;;;5052895;28;20509;-48
2022/10/14 06:43:04;;;;;;;10.17;8.60;;;18.60;72.40;;;;;;5050254;28;20818;-47
2022/10/14 06:45:30;;;;;;;10.40;9.33;;;18.70;71.90;;;;;;5054517;28;20271;-47
2022/10/14 06:47:56;;;;;;;9.30;8.40;;;18.80;71.60;;;;;;5054636;28;20196;-47
2022/10/14 06:50:22;;;;;;;9.30;8.40;;;18.80;71.30;;;;;;5052901;28;20271;-49
2022/10/14 06:52:48;;;;;;;12.07;7.80;;;18.80;71.30;;;;;;5054342;28;20439;-50
2022/10/14 06:55:14;;;;;;;10.60;9.53;;;18.80;71.30;;;;;;5051365;28;20239;-46
2022/10/14 06:57:40;;;;;;;11.97;8.77;;;18.90;71.00;;;;;;5052855;28;20221;-50
2022/10/14 07:00:07;;;;;;;10.37;8.40;;;18.90;71.00;;;;;;5053064;28;20949;-47
2022/10/14 07:02:32;;;;;;;8.87;8.00;;;18.90;71.20;;;;;;5056928;28;20620;-47
2022/10/14 07:04:58;;;;;;;11.33;8.43;;;19.00;70.60;;;;;;5051709;28;20527;-47
2022/10/14 07:07:24;;;;;;;9.50;8.40;;;19.00;70.60;;;;;;5056664;28;20192;-50
2022/10/14 07:09:49;;;;;;;10.60;9.50;;;19.00;70.40;;;;;;5057085;28;20718;-47
2022/10/14 07:12:15;;;;;;;13.23;9.53;;;19.00;70.70;;;;;;5056566;28;20196;-46
2022/10/14 07:14:41;;;;;;;12.60;9.10;;;18.90;71.20;;;;;;5057333;28;20188;-46
2022/10/14 07:17:07;;;;;;;10.63;7.90;;;18.90;71.70;;;;;;5053747;28;20204;-47
2022/10/14 07:19:33;;;;;;;10.07;9.10;;;18.90;72.00;;;;;;5056055;28;20225;-48
2022/10/14 07:21:59;;;;;;;10.63;9.03;;;18.70;72.50;;;;;;5055490;28;20442;-47
2022/10/14 07:24:24;;;;;;;12.47;8.77;;;18.60;73.30;;;;;;5057254;28;20533;-48
2022/10/14 07:26:57;;;;;;;10.53;8.60;;;18.70;73.40;;;;;;5054104;28;20196;-49
2022/10/14 07:29:23;;;;;;;10.50;7.20;;;18.70;73.60;;;;;;5054917;28;20220;-49
2022/10/14 07:31:49;;;;;;;11.40;7.60;;;18.70;73.00;;;;;;5053620;28;20848;-47
2022/10/14 07:34:14;;;;;;;11.10;7.73;;;18.90;72.50;;;;;;5055965;28;20735;-48
2022/10/14 07:36:40;;;;;;;10.03;8.57;;;18.80;71.70;;;;;;5052717;28;20193;-48
2022/10/14 07:39:06;;;;;;;9.67;8.17;;;18.60;73.20;;;;;;5056729;28;20200;-47
2022/10/14 07:41:31;;;;;;;9.20;8.20;;;18.50;73.30;;;;;;5051348;28;20200;-51
2022/10/14 07:44:05;;;;;;;8.50;7.60;;;18.50;73.50;;;;;;5042762;28;20197;-48
2022/10/14 07:46:32;;;;;;;9.17;8.27;;;18.60;73.50;;;;;;5047120;28;20279;-48
2022/10/14 07:49:04;;;;;;;8.13;7.33;;;18.70;73.40;;;;;;5045386;28;20463;-47
2022/10/14 07:51:31;;;;;;;9.00;8.00;;;18.70;73.20;;;;;;5047742;28;20983;-48
2022/10/14 07:53:59;;;;;;;11.07;7.97;;;18.80;73.00;;;;;;5050953;28;20497;-48
2022/10/14 07:56:25;;;;;;;10.40;7.40;;;18.80;73.10;;;;;;5049133;28;20427;-47
2022/10/14 07:58:51;;;;;;;8.60;7.80;;;18.80;73.30;;;;;;5049910;28;20438;-50
2022/10/14 08:01:17;;;;;;;11.23;9.53;;;18.80;73.20;;;;;;5046938;28;20452;-47
2022/10/14 08:03:44;;;;;;;8.00;7.27;;;19.00;73.10;;;;;;5042370;28;20676;-51
2022/10/14 08:06:12;;;;;;;12.13;8.17;;;18.90;73.10;;;;;;5051893;28;20454;-51
2022/10/14 08:08:38;;;;;;;9.77;7.37;;;19.00;73.20;;;;;;5052197;28;20489;-47
2022/10/14 08:11:06;;;;;;;9.37;8.57;;;19.10;74.00;;;;;;5048439;28;20483;-47
2022/10/14 08:13:32;;;;;;;9.03;7.80;;;19.20;73.50;;;;;;5050017;28;20455;-48
2022/10/14 08:15:57;;;;;;;12.47;8.30;;;19.20;73.60;;;;;;5050394;28;20811;-47
2022/10/14 08:18:24;;;;;;;8.57;7.77;;;19.10;73.60;;;;;;5050786;28;20449;-48
2022/10/14 08:20:50;;;;;;;10.23;7.80;;;19.10;73.50;;;;;;5043675;28;20323;-47
2022/10/14 08:23:16;;;;;;;8.73;7.50;;;19.10;73.20;;;;;;5050594;28;20593;-49
2022/10/14 08:25:42;;;;;;;7.27;6.57;;;19.10;73.40;;;;;;5049394;28;20196;-47
2022/10/14 08:28:08;;;;;;;8.33;6.33;;;19.10;73.10;;;;;;5049333;28;20189;-47
2022/10/14 08:30:34;;;;;;;8.67;7.87;;;19.10;73.30;;;;;;5047353;28;21047;-48
2022/10/14 08:33:00;;;;;;;8.50;7.47;;;19.00;73.80;;;;;;5049689;28;20451;-48
2022/10/14 08:35:26;;;;;;;10.43;8.50;;;19.10;73.30;;;;;;5051374;28;20446;-48
2022/10/14 08:37:57;;;;;;;12.10;8.17;;;19.10;73.00;;;;;;5046549;28;20276;-51
2022/10/14 08:40:23;;;;;;;10.13;6.90;;;19.10;74.00;;;;;;5047008;28;20246;-50
2022/10/14 08:43:07;;;;;;;8.10;7.30;;;19.00;74.10;;;;;;5042547;28;20450;-49
2022/10/14 08:45:44;;;;;;;9.80;7.53;;;19.00;73.90;;;;;;5046004;28;20443;-50
2022/10/14 08:48:16;;;;;;;9.03;8.13;;;18.80;74.90;;;;;;5048542;28;20824;-46
2022/10/14 08:50:50;;;;;;;7.90;7.10;;;19.00;74.70;;;;;;5050169;28;20495;-48
2022/10/14 08:53:29;;;;;;;9.73;7.90;;;19.20;73.80;;;;;;5046095;28;20463;-48
2022/10/14 08:55:59;;;;;;;9.53;7.80;;;19.30;73.40;;;;;;5046388;28;20458;-48
2022/10/14 08:58:47;;;;;;;12.33;7.50;;;19.20;73.20;;;;;;5048822;28;20451;-46
2022/10/14 09:01:18;;;;;;;8.43;7.60;;;19.20;73.00;;;;;;5051266;28;20676;-46
2022/10/14 09:03:44;;;;;;;9.20;7.10;;;18.70;75.70;;;;;;5050325;28;20450;-48
2022/10/14 09:06:17;;;;;;;11.83;7.30;;;18.70;76.50;;;;;;5042898;28;20439;-47
2022/10/14 09:08:46;;;;;;;8.13;7.23;;;18.60;75.80;;;;;;5046974;28;20287;-49
2022/10/14 09:11:15;;;;;;;8.77;7.97;;;18.50;76.90;;;;;;5048871;28;20490;-47
2022/10/14 09:13:45;;;;;;;7.90;7.10;;;18.70;77.00;;;;;;5051770;28;20432;-46
2022/10/14 09:16:24;;;;;;;9.40;8.50;;;18.90;75.50;;;;;;5049825;28;21183;-47
2022/10/14 09:19:03;;;;;;;8.80;6.30;;;18.90;74.60;;;;;;5037352;28;20781;-47
2022/10/14 09:21:33;;;;;;;8.13;6.57;;;18.80;75.80;;;;;;5048334;28;20806;-46
2022/10/14 09:24:01;;;;;;;7.20;6.50;;;19.10;75.00;;;;;;5050466;28;20881;-46
2022/10/14 09:26:38;;;;;;;8.10;7.03;;;19.30;74.50;;;;;;5048195;28;21251;-47
2022/10/14 09:29:04;;;;;;;8.43;6.10;;;19.20;74.40;;;;;;5046066;28;20562;-46
2022/10/14 09:31:30;;;;;;;6.73;6.03;;;19.30;73.40;;;;;;5049255;28;20451;-46
2022/10/14 09:33:55;;;;;;;8.00;6.27;;;19.30;72.40;;;;;;5047732;28;20454;-46
2022/10/14 09:36:21;;;;;;;5.97;5.47;;;19.30;73.10;;;;;;5048399;28;20223;-48
2022/10/14 09:38:51;;;;;;;7.17;6.47;;;19.40;72.20;;;;;;5047977;28;20655;-47
2022/10/14 09:41:20;;;;;;;6.77;6.17;;;19.60;71.10;;;;;;5044890;28;20207;-47
2022/10/14 09:44:12;;;;;;;6.83;6.00;;;19.60;71.50;;;;;;5046931;28;20499;-46
2022/10/14 09:46:38;;;;;;;6.80;6.20;;;19.60;71.50;;;;;;5043640;28;20486;-46
2022/10/14 09:49:03;;;;;;;6.67;5.17;;;19.80;71.40;;;;;;5044205;28;20471;-47
2022/10/14 09:51:32;;;;;;;8.37;6.10;;;19.80;70.50;;;;;;5046704;28;20208;-47
2022/10/14 09:54:01;;;;;;;6.90;5.40;;;19.90;71.10;;;;;;5046164;28;20256;-47
2022/10/14 09:56:38;;;;;;;5.60;5.00;;;20.20;70.70;;;;;;5045719;28;20505;-47
2022/10/14 09:59:15;;;;;;;8.00;5.70;;;20.20;70.40;;;;;;5044151;28;20542;-46
2022/10/14 10:01:49;;;;;;;6.93;5.80;;;19.90;70.70;;;;;;5047544;28;20449;-47
2022/10/14 10:04:30;;;;;;;6.90;5.73;;;19.90;71.40;;;;;;5046210;28;20500;-47
2022/10/14 10:06:57;;;;;;;12.03;5.00;;;19.70;70.30;;;;;;5046931;28;20482;-48
2022/10/14 10:09:23;;;;;;;6.97;6.47;;;19.70;71.60;;;;;;5046471;28;20835;-47
2022/10/14 10:11:48;;;;;;;7.57;5.40;;;19.80;72.40;;;;;;5047492;28;20443;-47
2022/10/14 10:14:23;;;;;;;6.53;5.40;;;20.00;71.80;;;;;;5050756;28;20994;-48
2022/10/14 10:16:51;;;;;;;7.60;5.40;;;20.20;70.40;;;;;;5048166;28;20640;-47
2022/10/14 10:19:27;;;;;;;7.43;6.17;;;20.40;70.00;;;;;;5048630;28;20821;-46
2022/10/14 10:21:54;;;;;;;6.70;5.60;;;20.60;69.40;;;;;;5048326;28;20453;-46
2022/10/14 10:24:22;;;;;;;5.90;4.93;;;20.60;68.40;;;;;;5047201;28;20443;-46
2022/10/14 10:26:48;;;;;;;6.60;5.27;;;20.60;67.90;;;;;;5044324;28;20447;-48
2022/10/14 10:29:30;;;;;;;6.70;5.53;;;20.70;68.20;;;;;;5044738;28;20495;-46
2022/10/14 10:32:08;;;;;;;6.43;5.77;;;20.80;68.40;;;;;;5041200;28;20973;-46
2022/10/14 10:34:55;;;;;;;12.10;5.70;;;20.80;67.90;;;;;;5045911;28;20447;-46
2022/10/14 10:37:31;;;;;;;8.87;5.50;;;21.00;67.00;;;;;;5042921;28;20443;-46
2022/10/14 10:40:13;;;;;;;7.53;4.50;;;21.00;66.70;;;;;;5045653;28;20458;-49
2022/10/14 10:42:44;;;;;;;5.47;4.90;;;21.00;67.00;;;;;;5043717;28;21030;-48
2022/10/14 10:45:28;;;;;;;7.83;6.17;;;20.80;67.20;;;;;;5045926;28;20455;-46
2022/10/14 10:48:21;;;;;;;12.57;7.50;;;20.80;67.10;;;;;;5045559;28;20938;-47
2022/10/14 10:50:46;;;;;;;15.10;8.90;;;21.00;67.10;;;;;;5047916;28;20483;-47
2022/10/14 10:53:23;;;;;;;6.40;5.63;;;21.20;66.70;;;;;;5046229;28;20473;-48
2022/10/14 10:56:06;;;;;;;13.10;8.70;;;21.50;65.60;;;;;;5046244;28;20220;-47
2022/10/14 10:58:57;;;;;;;7.63;6.97;;;21.60;65.30;;;;;;5047523;28;20454;-49
2022/10/14 11:01:49;;;;;;;7.20;5.60;;;21.60;65.30;;;;;;5047578;28;20443;-48
2022/10/14 11:04:21;;;;;;;9.87;6.33;;;21.70;66.00;;;;;;5048507;28;20825;-47
2022/10/14 11:13:17;;;;;;;7.33;6.00;;;22.30;63.20;;;;;;5040712;28;20492;-46
2022/10/14 11:16:16;;;;;;;8.07;6.43;;;22.50;62.60;;;;;;5047522;28;20450;-48
2022/10/14 11:18:50;;;;;;;6.87;5.37;;;22.30;61.20;;;;;;5052307;28;20431;-46
2022/10/14 11:21:33;;;;;;;5.27;4.77;;;22.50;61.60;;;;;;5050470;28;20450;-46
2022/10/14 11:24:20;;;;;;;7.90;6.10;;;22.40;61.40;;;;;;5043572;28;20922;-48
2022/10/14 11:27:07;;;;;;;5.97;5.33;;;22.50;61.40;;;;;;5052602;28;20937;-47
2022/10/14 11:29:51;;;;;;;6.83;5.17;;;22.50;61.80;;;;;;5050794;28;20470;-47
2022/10/14 11:32:50;;;;;;;12.13;5.07;;;22.40;62.10;;;;;;5051451;28;20458;-47
2022/10/14 11:35:50;;;;;;;7.83;4.70;;;22.30;62.10;;;;;;5048992;28;20470;-46
2022/10/14 11:38:21;;;;;;;9.10;5.43;;;22.60;61.80;;;;;;5051658;28;20443;-47
2022/10/14 11:40:48;;;;;;;6.67;4.70;;;22.50;60.80;;;;;;5050608;28;20434;-47
2022/10/14 11:43:17;;;;;;;9.70;5.90;;;22.60;61.30;;;;;;5051052;28;20546;-48
2022/10/14 11:46:03;;;;;;;5.87;5.07;;;22.70;61.20;;;;;;5048330;28;20533;-46
2022/10/14 11:48:47;;;;;;;7.00;4.90;;;22.70;61.30;;;;;;5047473;28;21078;-47
2022/10/14 11:51:42;;;;;;;5.47;4.83;;;22.70;61.50;;;;;;5048974;28;20483;-47
2022/10/14 11:54:13;;;;;;;9.73;6.43;;;22.70;61.30;;;;;;5049234;28;20816;-49
2022/10/14 11:56:42;;;;;;;9.27;5.50;;;22.70;61.20;;;;;;5046569;28;20475;-48
2022/10/14 11:59:42;;;;;;;7.97;6.17;;;22.70;61.20;;;;;;5051664;28;20446;-47
2022/10/14 12:02:24;;;;;;;6.20;5.53;;;22.80;61.80;;;;;;5046969;28;20571;-48
2022/10/14 12:05:20;;;;;;;8.37;5.73;;;22.80;62.40;;;;;;5057332;28;20500;-48
2022/10/14 12:08:08;;;;;;;6.33;5.73;;;22.80;62.80;;;;;;5057993;28;20922;-48
2022/10/14 12:10:58;;;;;;;9.60;5.43;;;22.80;62.90;;;;;;5013715;28;20483;-51
2022/10/14 12:13:46;;;;;;;6.37;5.77;;;22.80;63.10;;;;;;5050088;28;20441;-50
2022/10/14 12:16:15;;;;;;;5.80;5.30;;;22.80;62.90;;;;;;5047856;28;20569;-48
2022/10/14 12:18:43;;;;;;;6.83;6.23;;;22.80;63.30;;;;;;5052422;28;20443;-51
2022/10/14 12:21:42;;;;;;;7.27;6.57;;;22.70;63.20;;;;;;5052923;28;20830;-48
2022/10/14 12:24:14;;;;;;;11.60;6.53;;;22.60;64.30;;;;;;5051636;28;20462;-46
2022/10/14 12:26:46;;;;;;;5.80;5.20;;;22.70;64.20;;;;;;5043361;28;20499;-48
2022/10/14 12:29:49;;;;;;;5.60;5.10;;;22.70;64.00;;;;;;5043142;28;20463;-46
2022/10/14 12:32:25;;;;;;;9.43;5.87;;;22.80;63.60;;;;;;4997971;28;21051;-48
2022/10/14 12:35:00;;;;;;;6.73;5.63;;;22.80;63.30;;;;;;5048825;28;20769;-46
2022/10/14 12:37:33;;;;;;;5.30;4.63;;;22.60;63.80;;;;;;5046972;28;20528;-52
2022/10/14 12:40:01;;;;;;;4.90;4.53;;;22.40;64.40;;;;;;5050060;28;20501;-47
2022/10/14 12:42:43;;;;;;;5.90;4.20;;;22.40;64.40;;;;;;5043195;28;20518;-47
2022/10/14 12:45:19;;;;;;;4.10;3.67;;;22.50;63.10;;;;;;5052901;28;20996;-48
2022/10/14 12:47:45;;;;;;;5.03;3.33;;;22.70;62.00;;;;;;5049950;28;20449;-48
2022/10/14 12:50:13;;;;;;;4.20;3.43;;;22.70;61.80;;;;;;5052733;28;21184;-48
2022/10/14 12:52:39;;;;;;;4.17;3.30;;;22.80;61.80;;;;;;5051201;28;20454;-47
2022/10/14 12:55:16;;;;;;;3.63;3.33;;;22.80;60.90;;;;;;5052534;28;20514;-46
2022/10/14 12:57:42;;;;;;;8.83;3.20;;;22.70;60.50;;;;;;5047170;28;20547;-48
2022/10/14 13:00:34;;;;;;;3.37;3.10;;;22.70;61.20;;;;;;5040976;28;20451;-47
2022/10/14 13:03:02;;;;;;;3.13;2.83;;;22.70;61.80;;;;;;5045539;28;20458;-47